Time;durP1;ratioP1;P1;durP2;ratioP2;P2;SDS_P1;SDS_P2;PMS_P1;PMS_P2;Temp;Humidity;BMP_temperature;BMP_pressure;BME280_temperature;BME280_humidity;BME280_pressure;Samples;Min_cycle;Max_cycle;Signal;HPM_P1;HPM_P2
2024/02/23 00:01:37;;;;;;;;;;;;;;;17.97;38.45;93754.59;10516214;28;1921;-59
2024/02/23 00:06:38;;;;;;;;;;;;;;;17.95;38.52;93758.59;10518196;28;1971;-59
2024/02/23 00:11:44;;;;;;;;;;;;;;;17.96;38.48;93762.75;10530096;28;1626;-59
2024/02/23 00:16:44;;;;;;;;;;;;;;;17.98;38.29;93756.16;10530245;28;1437;-59
2024/02/23 00:21:49;;;;;;;;;;;;;;;17.95;38.59;93766.47;10531433;28;1437;-59
2024/02/23 00:26:51;;;;;;;;;;;;;;;17.99;38.44;93767.41;10524366;28;1886;-59
2024/02/23 00:31:51;;;;;;;;;;;;;;;18.04;38.20;93762.78;10539036;28;1591;-59
2024/02/23 00:36:51;;;;;;;;;;;;;;;18.05;38.15;93776.69;10522739;28;2383;-59
2024/02/23 00:41:52;;;;;;;;;;;;;;;18.08;38.25;93776.84;10522590;28;1549;-59
2024/02/23 00:46:52;;;;;;;;;;;;;;;18.10;38.33;93779.16;10522170;28;1901;-59
2024/02/23 00:51:52;;;;;;;;;;;;;;;18.22;38.00;93787.97;10512752;28;1589;-59
2024/02/23 00:56:52;;;;;;;;;;;;;;;18.24;38.13;93787.66;10526278;28;1485;-59
2024/02/23 01:01:53;;;;;;;;;;;;;;;18.29;37.92;93792.78;10520982;28;1699;-59
2024/02/23 01:06:53;;;;;;;;;;;;;;;18.35;37.84;93794.16;10515754;28;1975;-59
2024/02/23 01:11:54;;;;;;;;;;;;;;;18.42;37.53;93810.25;10516479;28;1471;-60
2024/02/23 01:16:54;;;;;;;;;;;;;;;18.46;37.54;93812.00;10517832;28;1347;-59
2024/02/23 01:21:59;;;;;;;;;;;;;;;18.47;37.56;93810.91;10511709;28;1440;-59
2024/02/23 01:26:59;;;;;;;;;;;;;;;18.50;37.52;93830.50;10516647;28;1913;-59
2024/02/23 01:31:59;;;;;;;;;;;;;;;18.55;37.25;93835.59;10514606;28;2420;-59
2024/02/23 01:37:00;;;;;;;;;;;;;;;18.58;37.25;93840.25;10516370;28;1534;-59
2024/02/23 01:42:00;;;;;;;;;;;;;;;18.65;37.18;93845.78;10516345;28;1660;-59
2024/02/23 01:47:00;;;;;;;;;;;;;;;18.70;37.10;93848.28;10523905;28;1895;-59
2024/02/23 01:52:00;;;;;;;;;;;;;;;18.73;37.03;93839.03;10517223;28;1389;-59
2024/02/23 01:57:01;;;;;;;;;;;;;;;18.76;37.11;93847.06;10524440;28;1578;-59
2024/02/23 02:02:01;;;;;;;;;;;;;;;18.73;37.03;93846.91;10522272;28;1376;-59
2024/02/23 02:07:01;;;;;;;;;;;;;;;18.79;36.86;93851.69;10516374;28;1983;-59
2024/02/23 02:12:02;;;;;;;;;;;;;;;18.78;36.78;93852.00;10512319;28;1167;-59
2024/02/23 02:17:02;;;;;;;;;;;;;;;18.77;37.02;93860.97;10516908;28;1361;-59
2024/02/23 02:22:02;;;;;;;;;;;;;;;18.91;36.71;93858.97;10514330;28;1341;-59
2024/02/23 02:27:02;;;;;;;;;;;;;;;18.84;36.58;93867.28;10508704;28;1887;-59
2024/02/23 02:32:03;;;;;;;;;;;;;;;18.86;36.81;93872.22;10519041;28;2292;-59
2024/02/23 02:37:03;;;;;;;;;;;;;;;18.91;36.52;93879.97;10516678;28;1598;-59
2024/02/23 02:42:04;;;;;;;;;;;;;;;18.89;36.74;93890.78;10528553;28;1604;-59
2024/02/23 02:47:04;;;;;;;;;;;;;;;18.87;36.60;93886.91;10528017;28;1906;-59
2024/02/23 02:52:04;;;;;;;;;;;;;;;18.92;36.31;93890.16;10524029;28;1462;-59
2024/02/23 02:57:05;;;;;;;;;;;;;;;18.88;36.63;93902.34;10524939;28;1618;-59
2024/02/23 03:02:05;;;;;;;;;;;;;;;18.82;36.78;93894.91;10531203;28;1117;-59
2024/02/23 03:07:05;;;;;;;;;;;;;;;18.84;36.66;93898.78;10515758;28;1879;-59
2024/02/23 03:12:05;;;;;;;;;;;;;;;18.78;36.30;93892.13;10526474;28;1165;-59
2024/02/23 03:17:11;;;;;;;;;;;;;;;18.69;36.56;93891.38;10523632;28;1381;-59
2024/02/23 03:22:11;;;;;;;;;;;;;;;18.67;36.50;93894.28;10510754;28;1409;-59
2024/02/23 03:27:11;;;;;;;;;;;;;;;18.69;36.55;93891.38;10514409;28;2311;-60
2024/02/23 03:32:12;;;;;;;;;;;;;;;18.64;36.28;93894.13;10518193;28;1577;-59
2024/02/23 03:37:12;;;;;;;;;;;;;;;18.62;36.28;93893.66;10518619;28;1586;-59
2024/02/23 03:42:12;;;;;;;;;;;;;;;18.63;36.45;93898.59;10509074;28;1867;-59
2024/02/23 03:47:13;;;;;;;;;;;;;;;18.59;36.59;93897.66;10520309;28;1897;-59
2024/02/23 03:52:13;;;;;;;;;;;;;;;18.58;36.38;93913.72;10514607;28;1417;-59
2024/02/23 03:57:13;;;;;;;;;;;;;;;18.57;36.67;93914.78;10519350;28;1594;-59
2024/02/23 04:02:13;;;;;;;;;;;;;;;18.54;36.61;93918.03;10515932;28;1165;-59
2024/02/23 04:07:14;;;;;;;;;;;;;;;18.53;36.65;93924.34;10514330;28;1967;-59
2024/02/23 04:12:14;;;;;;;;;;;;;;;18.51;36.56;93916.00;10510282;28;1238;-59
2024/02/23 04:17:15;;;;;;;;;;;;;;;18.53;36.86;93926.97;10506313;28;1516;-59
2024/02/23 04:22:15;;;;;;;;;;;;;;;18.53;36.63;93927.72;10515172;28;2397;-59
2024/02/23 04:27:15;;;;;;;;;;;;;;;18.50;36.72;93925.72;10506973;28;1906;-59
2024/02/23 04:32:15;;;;;;;;;;;;;;;18.54;36.72;93926.66;10527789;28;1393;-59
2024/02/23 04:37:16;;;;;;;;;;;;;;;18.57;36.68;93930.50;10521670;28;1635;-59
2024/02/23 04:42:16;;;;;;;;;;;;;;;18.53;36.90;93922.50;10514250;28;1306;-59
2024/02/23 04:47:16;;;;;;;;;;;;;;;18.57;36.71;93925.28;10525739;28;1973;-59
2024/02/23 04:52:17;;;;;;;;;;;;;;;18.60;36.58;93933.31;10514978;28;1408;-59
2024/02/23 04:57:17;;;;;;;;;;;;;;;18.56;36.46;93928.97;10526980;28;1424;-59
2024/02/23 05:02:17;;;;;;;;;;;;;;;18.59;36.60;93916.03;10524406;28;1190;-58
2024/02/23 05:07:17;;;;;;;;;;;;;;;18.59;36.81;93907.38;10528273;28;1906;-59
2024/02/23 05:12:18;;;;;;;;;;;;;;;18.60;36.63;93899.22;10531957;28;1090;-59
2024/02/23 05:17:18;;;;;;;;;;;;;;;18.63;36.74;93900.44;10526598;28;2200;-59
2024/02/23 05:22:20;;;;;;;;;;;;;;;18.75;36.40;93915.59;10526570;28;1486;-59
2024/02/23 05:27:20;;;;;;;;;;;;;;;18.86;36.48;93930.75;10511974;28;2001;-59
2024/02/23 05:32:20;;;;;;;;;;;;;;;18.80;36.49;93934.59;10533322;28;1711;-59
2024/02/23 05:37:21;;;;;;;;;;;;;;;18.87;36.26;93927.06;10509501;28;1366;-59
2024/02/23 05:42:21;;;;;;;;;;;;;;;18.80;36.28;93931.97;10521789;28;1687;-59
2024/02/23 05:47:21;;;;;;;;;;;;;;;18.69;36.64;93935.97;10520975;28;1905;-59
2024/02/23 05:52:21;;;;;;;;;;;;;;;18.77;36.44;93948.34;10527861;28;1620;-59
2024/02/23 05:57:22;;;;;;;;;;;;;;;18.80;36.37;93939.06;10521665;28;1373;-59
2024/02/23 06:02:22;;;;;;;;;;;;;;;18.64;36.67;93963.13;10525152;28;1221;-59
2024/02/23 06:07:28;;;;;;;;;;;;;;;18.75;36.54;93968.88;10513584;28;1970;-59
2024/02/23 06:12:28;;;;;;;;;;;;;;;18.53;36.92;93967.09;10513992;28;1027;-59
2024/02/23 06:17:29;;;;;;;;;;;;;;;18.56;36.83;93970.97;10512827;28;2336;-59
2024/02/23 06:22:29;;;;;;;;;;;;;;;18.52;37.06;93977.91;10518424;28;1572;-59
2024/02/23 06:27:30;;;;;;;;;;;;;;;18.84;36.31;93998.53;10516248;28;1913;-59
2024/02/23 06:32:30;;;;;;;;;;;;;;;18.54;37.06;93988.88;10509660;28;1520;-59
2024/02/23 06:37:33;;;;;;;;;;;;;;;18.48;37.09;93993.47;10515138;28;1750;-59
2024/02/23 06:42:33;;;;;;;;;;;;;;;18.48;37.20;93990.84;10514962;28;1078;-59
2024/02/23 06:47:33;;;;;;;;;;;;;;;18.45;37.10;93990.66;10523428;28;1902;-59
2024/02/23 06:52:34;;;;;;;;;;;;;;;18.46;37.10;93984.34;10508851;28;1334;-59
2024/02/23 06:57:34;;;;;;;;;;;;;;;18.59;36.74;93979.00;10507531;28;1366;-59
2024/02/23 07:02:36;;;;;;;;;;;;;;;18.47;37.10;93986.66;10507137;28;1015;-59
2024/02/23 07:07:36;;;;;;;;;;;;;;;18.52;37.08;93996.25;10515265;28;1971;-59
2024/02/23 07:12:36;;;;;;;;;;;;;;;18.56;36.85;93994.59;10528931;28;2421;-59
2024/02/23 07:17:37;;;;;;;;;;;;;;;18.47;37.13;93999.00;10514771;28;1572;-59
2024/02/23 07:22:37;;;;;;;;;;;;;;;18.46;37.14;94015.84;10517702;28;1564;-59
2024/02/23 07:27:37;;;;;;;;;;;;;;;18.49;37.16;94017.84;10510474;28;1976;-59
2024/02/23 07:32:37;;;;;;;;;;;;;;;18.46;37.07;94023.72;10516808;28;1620;-59
2024/02/23 07:37:40;;;;;;;;;;;;;;;18.49;37.04;94038.84;10523160;28;1836;-58
2024/02/23 07:42:40;;;;;;;;;;;;;;;18.47;37.10;94038.34;10519684;28;1427;-59
2024/02/23 07:47:41;;;;;;;;;;;;;;;18.51;36.94;94026.97;10528177;28;1909;-59
2024/02/23 07:52:41;;;;;;;;;;;;;;;18.50;36.73;94025.44;10517070;28;2271;-59
2024/02/23 07:57:41;;;;;;;;;;;;;;;18.48;37.22;94016.31;10524248;28;1599;-59
2024/02/23 08:02:41;;;;;;;;;;;;;;;18.46;37.33;94016.63;10521366;28;1809;-58
2024/02/23 08:07:42;;;;;;;;;;;;;;;18.46;37.05;94013.22;10525864;28;1972;-59
2024/02/23 08:12:42;;;;;;;;;;;;;;;18.44;37.21;93999.63;10519655;28;1027;-59
2024/02/23 08:17:42;;;;;;;;;;;;;;;18.45;37.09;93996.69;10518729;28;1611;-59
2024/02/23 08:22:43;;;;;;;;;;;;;;;18.52;36.91;94015.41;10525717;28;1652;-59
2024/02/23 08:27:43;;;;;;;;;;;;;;;18.50;37.08;93982.69;10515621;28;1980;-59
2024/02/23 08:32:43;;;;;;;;;;;;;;;18.48;37.24;93975.13;10519096;28;1709;-59
2024/02/23 08:37:44;;;;;;;;;;;;;;;18.49;37.15;93992.38;10527582;28;2277;-59
2024/02/23 08:42:44;;;;;;;;;;;;;;;18.49;37.13;93992.38;10520909;28;1454;-59
2024/02/23 08:47:44;;;;;;;;;;;;;;;18.49;36.97;94007.34;10517637;28;1905;-58
2024/02/23 08:52:45;;;;;;;;;;;;;;;18.50;37.11;94006.28;10518269;28;1981;-59
2024/02/23 08:57:45;;;;;;;;;;;;;;;18.51;37.07;94026.19;10516954;28;940;-58
2024/02/23 09:02:45;;;;;;;;;;;;;;;18.49;37.08;94041.47;10522884;28;1357;-59
2024/02/23 09:07:45;;;;;;;;;;;;;;;18.51;37.10;94045.34;10517866;28;1910;-60
2024/02/23 09:12:46;;;;;;;;;;;;;;;18.51;37.06;94050.59;10513373;28;952;-59
2024/02/23 09:17:46;;;;;;;;;;;;;;;18.54;36.99;94070.22;10525291;28;1604;-59
2024/02/23 09:22:47;;;;;;;;;;;;;;;18.52;36.98;94081.00;10514914;28;2330;-59
2024/02/23 09:27:47;;;;;;;;;;;;;;;18.53;36.93;94079.91;10525910;28;1977;-58
2024/02/23 09:32:47;;;;;;;;;;;;;;;18.53;36.84;94076.50;10529846;28;1609;-59
2024/02/23 09:37:47;;;;;;;;;;;;;;;18.51;37.17;94078.66;10526194;28;1640;-59
2024/02/23 09:42:49;;;;;;;;;;;;;;;18.53;37.08;94077.28;10523491;28;1030;-59
2024/02/23 09:47:50;;;;;;;;;;;;;;;18.56;37.05;94078.56;10515942;28;1913;-59
2024/02/23 09:52:50;;;;;;;;;;;;;;;18.54;36.93;94081.47;10521011;28;1577;-59
2024/02/23 09:57:51;;;;;;;;;;;;;;;18.53;36.87;94066.81;10518774;28;976;-59
2024/02/23 10:02:51;;;;;;;;;;;;;;;18.53;37.09;94066.03;10534495;28;1336;-60
2024/02/23 10:07:53;;;;;;;;;;;;;;;18.52;36.92;94083.63;10533284;28;2365;-60
2024/02/23 10:12:54;;;;;;;;;;;;;;;18.56;36.99;94081.97;10525106;28;1502;-56
2024/02/23 10:17:54;;;;;;;;;;;;;;;18.57;36.80;94080.88;10519734;28;1561;-58
2024/02/23 10:22:55;;;;;;;;;;;;;;;18.53;37.04;94079.91;10525494;28;1616;-58
2024/02/23 10:27:55;;;;;;;;;;;;;;;18.54;37.07;94067.59;10517617;28;1917;-58
2024/02/23 10:32:56;;;;;;;;;;;;;;;18.57;36.91;94045.97;10507034;28;1610;-58
2024/02/23 10:37:56;;;;;;;;;;;;;;;18.56;36.99;94054.94;10529777;28;1929;-58
2024/02/23 10:42:59;;;;;;;;;;;;;;;18.54;36.75;94057.09;10523642;28;995;-60
2024/02/23 10:47:59;;;;;;;;;;;;;;;18.52;36.94;94069.72;10523543;28;1909;-60
2024/02/23 10:53:00;;;;;;;;;;;;;;;18.55;36.84;94069.13;10514565;28;1360;-60
2024/02/23 10:58:00;;;;;;;;;;;;;;;18.58;36.88;94061.44;10517280;28;968;-59
2024/02/23 11:03:03;;;;;;;;;;;;;;;18.59;36.75;94065.59;10509574;28;2295;-60
2024/02/23 11:08:05;;;;;;;;;;;;;;;18.58;36.94;94069.31;10511387;28;1909;-60
2024/02/23 11:13:07;;;;;;;;;;;;;;;18.63;36.85;94071.00;10517356;28;1382;-58
2024/02/23 11:18:32;;;;;;;;;;;;;;;18.87;36.25;94065.41;10504169;28;1265;-60
2024/02/23 11:23:42;;;;;;;;;;;;;;;18.81;36.36;94072.66;10505523;28;1681;-60
2024/02/23 11:28:53;;;;;;;;;;;;;;;18.81;36.46;94067.41;10520146;28;1909;-58
2024/02/23 11:33:54;;;;;;;;;;;;;;;18.91;36.31;94074.25;10507272;28;1636;-57
2024/02/23 11:38:55;;;;;;;;;;;;;;;18.94;36.17;94066.53;10529709;28;1417;-60
2024/02/23 11:43:55;;;;;;;;;;;;;;;18.95;36.46;94057.59;10516248;28;1394;-60
2024/02/23 11:48:55;;;;;;;;;;;;;;;18.99;36.10;94058.53;10525547;28;1975;-60
2024/02/23 11:53:58;;;;;;;;;;;;;;;19.01;36.18;94069.50;10512047;28;1536;-57
2024/02/23 11:58:58;;;;;;;;;;;;;;;19.10;35.98;94065.03;10522267;28;2378;-59
2024/02/23 12:04:01;;;;;;;;;;;;;;;19.03;36.15;94059.47;10506168;28;1736;-59
2024/02/23 12:09:01;;;;;;;;;;;;;;;19.14;36.07;94052.88;10526408;28;1959;-59
2024/02/23 12:14:02;;;;;;;;;;;;;;;19.11;35.99;94050.84;10527107;28;1797;-59
2024/02/23 12:19:03;;;;;;;;;;;;;;;19.13;36.00;94058.41;10520250;28;1755;-60
2024/02/23 12:24:07;;;;;;;;;;;;;;;19.21;35.70;94061.06;10517734;28;1659;-60
2024/02/23 12:29:08;;;;;;;;;;;;;;;19.18;35.87;94039.91;10523685;28;1979;-59
2024/02/23 12:34:11;;;;;;;;;;;;;;;19.19;35.90;94029.06;10526298;28;1522;-60
2024/02/23 12:39:11;;;;;;;;;;;;;;;19.26;35.75;94032.03;10530509;28;1430;-59
2024/02/23 12:44:12;;;;;;;;;;;;;;;19.28;35.57;94032.50;10526610;28;2346;-60
2024/02/23 12:49:12;;;;;;;;;;;;;;;19.29;35.71;94036.66;10520708;28;1959;-61
2024/02/23 12:54:12;;;;;;;;;;;;;;;19.27;35.74;94044.09;10518001;28;1617;-59
2024/02/23 12:59:12;;;;;;;;;;;;;;;19.27;35.82;94033.56;10512147;28;1374;-60
2024/02/23 13:04:13;;;;;;;;;;;;;;;19.33;35.72;94014.00;10525212;28;1110;-59
2024/02/23 13:09:14;;;;;;;;;;;;;;;19.30;35.93;94009.34;10512873;28;1913;-59
2024/02/23 13:14:15;;;;;;;;;;;;;;;19.31;35.65;94031.09;10512733;28;1172;-60
2024/02/23 13:19:15;;;;;;;;;;;;;;;19.35;35.46;94019.72;10521739;28;1842;-60
2024/02/23 13:24:16;;;;;;;;;;;;;;;19.33;35.46;94045.50;10520121;28;2728;-59
2024/02/23 13:29:16;;;;;;;;;;;;;;;19.36;35.57;94049.38;10513646;28;1914;-58
2024/02/23 13:34:17;;;;;;;;;;;;;;;19.38;35.40;94055.91;10512196;28;1535;-58
2024/02/23 13:39:18;;;;;;;;;;;;;;;19.39;35.48;94046.91;10518716;28;1706;-57
2024/02/23 13:44:18;;;;;;;;;;;;;;;19.45;35.38;94040.44;10514740;28;1274;-59
2024/02/23 13:49:18;;;;;;;;;;;;;;;19.41;35.35;94015.09;10515666;28;1903;-59
2024/02/23 13:54:19;;;;;;;;;;;;;;;19.34;35.19;94026.06;10518802;28;1592;-60
2024/02/23 13:59:19;;;;;;;;;;;;;;;19.31;35.20;94024.00;10528129;28;1366;-59
2024/02/23 14:04:19;;;;;;;;;;;;;;;19.24;35.51;93981.66;10512471;28;1113;-59
2024/02/23 14:09:19;;;;;;;;;;;;;;;19.24;35.69;93984.28;10514896;28;2157;-59
2024/02/23 14:14:20;;;;;;;;;;;;;;;19.24;35.55;93994.78;10514237;28;1036;-60
2024/02/23 14:19:20;;;;;;;;;;;;;;;19.15;35.81;93980.09;10516858;28;1640;-59
2024/02/23 14:24:20;;;;;;;;;;;;;;;19.13;35.78;93982.25;10514755;28;1351;-59
2024/02/23 14:29:21;;;;;;;;;;;;;;;19.12;35.76;94010.38;10520022;28;1901;-59
2024/02/23 14:34:23;;;;;;;;;;;;;;;19.11;35.10;93990.44;10526478;28;1532;-59
2024/02/23 14:39:23;;;;;;;;;;;;;;;19.08;35.22;94012.03;10516439;28;1488;-60
2024/02/23 14:44:24;;;;;;;;;;;;;;;19.09;35.07;94016.22;10528200;28;1030;-60
2024/02/23 14:49:24;;;;;;;;;;;;;;;19.06;35.49;94013.44;10509542;28;1906;-59
2024/02/23 14:54:24;;;;;;;;;;;;;;;19.05;35.35;94007.41;10516286;28;1325;-60
2024/02/23 14:59:25;;;;;;;;;;;;;;;19.07;35.44;93989.50;10532140;28;972;-60
2024/02/23 15:04:25;;;;;;;;;;;;;;;19.09;35.47;93978.69;10521800;28;2341;-60
2024/02/23 15:09:25;;;;;;;;;;;;;;;19.11;35.64;93972.06;10512252;28;1981;-60
2024/02/23 15:14:26;;;;;;;;;;;;;;;19.18;35.65;93959.25;10523923;28;1467;-58
2024/02/23 15:19:27;;;;;;;;;;;;;;;19.17;35.63;93949.81;10523586;28;1950;-60
2024/02/23 15:24:27;;;;;;;;;;;;;;;19.20;35.60;94017.50;10514283;28;1453;-59
2024/02/23 15:29:28;;;;;;;;;;;;;;;19.22;35.62;94015.34;10512644;28;1910;-59
2024/02/23 15:34:28;;;;;;;;;;;;;;;19.27;35.58;93970.53;10517510;28;1393;-60
2024/02/23 15:39:29;;;;;;;;;;;;;;;19.27;35.61;93952.13;10521178;28;1794;-60
2024/02/23 15:44:29;;;;;;;;;;;;;;;19.32;35.33;93973.03;10505478;28;2899;-60
2024/02/23 15:49:29;;;;;;;;;;;;;;;19.35;35.53;93971.66;10516916;28;1907;-60
2024/02/23 15:54:31;;;;;;;;;;;;;;;19.34;35.48;94007.66;10508595;28;1698;-59
2024/02/23 15:59:31;;;;;;;;;;;;;;;19.36;35.68;94002.88;10512235;28;1450;-59
2024/02/23 16:04:32;;;;;;;;;;;;;;;19.42;35.32;93991.13;10512128;28;1545;-60
2024/02/23 16:09:32;;;;;;;;;;;;;;;19.39;35.67;93975.97;10509509;28;1981;-60
2024/02/23 16:14:33;;;;;;;;;;;;;;;19.41;35.32;93981.69;10507648;28;1378;-59
2024/02/23 16:19:33;;;;;;;;;;;;;;;19.42;35.51;93977.22;10512425;28;1092;-60
2024/02/23 16:24:33;;;;;;;;;;;;;;;19.45;35.36;93971.38;10510820;28;1593;-60
2024/02/23 16:29:34;;;;;;;;;;;;;;;19.44;35.24;93978.47;10530360;28;1914;-60
2024/02/23 16:34:34;;;;;;;;;;;;;;;19.47;35.19;93987.59;10515075;28;2430;-60
2024/02/23 16:39:35;;;;;;;;;;;;;;;19.48;35.31;93992.53;10523129;28;1326;-60
2024/02/23 16:44:36;;;;;;;;;;;;;;;19.53;35.31;93977.69;10510391;28;1105;-60
2024/02/23 16:49:36;;;;;;;;;;;;;;;19.48;35.13;93966.25;10522685;28;1971;-60
2024/02/23 16:54:36;;;;;;;;;;;;;;;19.52;35.12;93965.63;10521137;28;1425;-60
2024/02/23 16:59:36;;;;;;;;;;;;;;;19.55;35.06;93955.28;10522528;28;1525;-59
2024/02/23 17:04:37;;;;;;;;;;;;;;;19.56;35.04;93956.06;10521697;28;1157;-60
2024/02/23 17:09:38;;;;;;;;;;;;;;;19.57;34.99;93981.25;10513579;28;1898;-60
2024/02/23 17:14:38;;;;;;;;;;;;;;;19.57;35.24;94015.41;10520313;28;2427;-60
2024/02/23 17:19:38;;;;;;;;;;;;;;;19.56;35.14;94025.16;10518697;28;1792;-59
2024/02/23 17:24:39;;;;;;;;;;;;;;;19.60;35.33;94017.44;10520045;28;1394;-60
2024/02/23 17:29:39;;;;;;;;;;;;;;;19.64;35.00;93992.09;10528828;28;1905;-59
2024/02/23 17:34:39;;;;;;;;;;;;;;;19.62;35.07;93970.59;10519525;28;1723;-60
2024/02/23 17:39:39;;;;;;;;;;;;;;;19.70;34.93;93951.41;10529309;28;1660;-60
2024/02/23 17:44:40;;;;;;;;;;;;;;;19.64;35.02;93969.19;10515829;28;1082;-60
2024/02/23 17:49:40;;;;;;;;;;;;;;;19.70;34.79;94006.63;10516058;28;1993;-60
2024/02/23 17:54:40;;;;;;;;;;;;;;;19.65;35.13;93998.88;10523447;28;1518;-60
2024/02/23 17:59:41;;;;;;;;;;;;;;;19.69;34.94;94007.69;10516036;28;1433;-59
2024/02/23 18:04:42;;;;;;;;;;;;;;;19.69;34.82;94012.94;10511899;28;2441;-60
2024/02/23 18:09:43;;;;;;;;;;;;;;;19.68;34.79;93985.13;10508899;28;1972;-59
2024/02/23 18:14:43;;;;;;;;;;;;;;;19.70;34.87;93975.06;10522235;28;1551;-59
2024/02/23 18:19:43;;;;;;;;;;;;;;;19.70;34.84;93983.72;10521825;28;1711;-60
2024/02/23 18:24:44;;;;;;;;;;;;;;;19.70;34.88;93982.97;10506749;28;1397;-60
2024/02/23 18:29:44;;;;;;;;;;;;;;;19.75;34.96;93967.00;10509098;28;1906;-59
2024/02/23 18:34:44;;;;;;;;;;;;;;;19.76;35.05;93965.94;10515120;28;1684;-60
2024/02/23 18:39:45;;;;;;;;;;;;;;;19.75;34.63;93933.63;10521489;28;1366;-60
2024/02/23 18:44:45;;;;;;;;;;;;;;;19.74;34.80;93960.22;10528102;28;1070;-60
2024/02/23 18:49:45;;;;;;;;;;;;;;;19.77;34.62;93981.41;10516738;28;2551;-60
2024/02/23 18:54:45;;;;;;;;;;;;;;;19.81;34.67;93973.66;10516543;28;1380;-59
2024/02/23 18:59:46;;;;;;;;;;;;;;;19.76;34.62;93966.72;10512695;28;1360;-58
2024/02/23 19:04:46;;;;;;;;;;;;;;;19.75;34.79;93959.13;10517433;28;1529;-58
2024/02/23 19:09:46;;;;;;;;;;;;;;;19.77;34.62;93943.81;10512458;28;1968;-59
2024/02/23 19:14:46;;;;;;;;;;;;;;;19.80;34.57;93933.47;10517308;28;1588;-58
2024/02/23 19:19:47;;;;;;;;;;;;;;;19.80;34.38;93940.56;10508527;28;1716;-58
2024/02/23 19:24:47;;;;;;;;;;;;;;;19.81;34.59;93953.41;10520138;28;1368;-58
2024/02/23 19:29:47;;;;;;;;;;;;;;;19.81;34.68;93974.44;10512720;28;1949;-59
2024/02/23 19:34:47;;;;;;;;;;;;;;;19.79;34.56;93967.94;10517725;28;1686;-59
2024/02/23 19:39:48;;;;;;;;;;;;;;;19.82;34.53;93959.44;10506027;28;2489;-58
2024/02/23 19:44:50;;;;;;;;;;;;;;;19.85;34.55;93964.06;10524715;28;1394;-59
2024/02/23 19:49:50;;;;;;;;;;;;;;;19.82;34.49;93948.94;10522655;28;1975;-58
2024/02/23 19:54:52;;;;;;;;;;;;;;;19.81;34.50;93958.66;10521617;28;1355;-58
2024/02/23 19:59:53;;;;;;;;;;;;;;;19.85;34.33;93953.53;10542511;28;1341;-58
2024/02/23 20:04:54;;;;;;;;;;;;;;;19.85;34.48;93945.66;10525302;28;1672;-59
2024/02/23 20:09:55;;;;;;;;;;;;;;;19.82;34.63;93944.44;10532664;28;1964;-59
2024/02/23 20:14:56;;;;;;;;;;;;;;;19.84;34.58;93923.88;10535739;28;1366;-59
2024/02/23 20:19:56;;;;;;;;;;;;;;;19.85;34.59;93912.25;10524148;28;2668;-58
2024/02/23 20:24:57;;;;;;;;;;;;;;;19.82;34.45;93909.50;10516163;28;1518;-59
2024/02/23 20:29:57;;;;;;;;;;;;;;;19.89;34.67;93912.41;10519680;28;1940;-59
2024/02/23 20:34:57;;;;;;;;;;;;;;;19.86;34.57;93913.03;10525851;28;1628;-57
2024/02/23 20:39:58;;;;;;;;;;;;;;;19.85;34.35;93908.84;10521738;28;1380;-57
2024/02/23 20:45:01;;;;;;;;;;;;;;;19.90;34.34;93919.22;10515878;28;1737;-58
2024/02/23 20:50:01;;;;;;;;;;;;;;;19.88;34.30;93922.16;10531181;28;1906;-59
2024/02/23 20:55:02;;;;;;;;;;;;;;;19.88;34.46;93901.13;10516971;28;1378;-59
2024/02/23 21:00:02;;;;;;;;;;;;;;;19.90;34.29;93908.69;10521509;28;2589;-59
2024/02/23 21:05:03;;;;;;;;;;;;;;;19.91;34.19;93913.63;10520955;28;1177;-59
2024/02/23 21:10:03;;;;;;;;;;;;;;;19.88;34.66;93924.78;10518699;28;1915;-59
2024/02/23 21:15:04;;;;;;;;;;;;;;;19.82;34.61;93918.16;10522014;28;1510;-60
2024/02/23 21:20:05;;;;;;;;;;;;;;;19.83;34.27;93934.69;10520113;28;1631;-57
2024/02/23 21:25:06;;;;;;;;;;;;;;;19.80;34.38;93940.56;10519034;28;1836;-59
2024/02/23 21:30:07;;;;;;;;;;;;;;;19.75;34.77;93938.09;10517403;28;1902;-59
2024/02/23 21:35:07;;;;;;;;;;;;;;;19.70;34.72;93936.41;10513416;28;1731;-60
2024/02/23 21:40:08;;;;;;;;;;;;;;;19.68;34.51;93924.66;10520986;28;1389;-59
2024/02/23 21:45:09;;;;;;;;;;;;;;;19.59;34.71;93918.63;10519528;28;1338;-60
2024/02/23 21:50:09;;;;;;;;;;;;;;;19.55;35.07;93931.63;10509921;28;2569;-60
2024/02/23 21:55:09;;;;;;;;;;;;;;;19.62;34.32;93939.06;10519520;28;1890;-59
2024/02/23 22:00:11;;;;;;;;;;;;;;;19.49;35.10;93925.00;10513235;28;1569;-60
2024/02/23 22:05:11;;;;;;;;;;;;;;;19.43;35.31;93911.22;10504762;28;1765;-59
2024/02/23 22:10:12;;;;;;;;;;;;;;;19.48;34.45;93916.31;10523841;28;1909;-59
2024/02/23 22:15:12;;;;;;;;;;;;;;;19.41;35.02;93917.88;10519153;28;1636;-59
2024/02/23 22:20:13;;;;;;;;;;;;;;;19.33;34.96;93927.28;10524068;28;1520;-59
2024/02/23 22:25:13;;;;;;;;;;;;;;;19.35;35.76;93922.50;10510286;28;1611;-59
2024/02/23 22:30:14;;;;;;;;;;;;;;;19.32;36.29;93920.47;10505623;28;1914;-59
2024/02/23 22:35:14;;;;;;;;;;;;;;;19.36;36.07;93916.19;10515996;28;1610;-57
2024/02/23 22:40:14;;;;;;;;;;;;;;;19.30;37.40;93917.38;10523260;28;2422;-58
2024/02/23 22:45:15;;;;;;;;;;;;;;;19.27;37.36;93915.34;10524799;28;1499;-57
2024/02/23 22:50:16;;;;;;;;;;;;;;;19.25;37.34;93909.66;10530238;28;1914;-59
2024/02/23 22:55:16;;;;;;;;;;;;;;;19.24;37.87;93916.00;10528611;28;1920;-59
2024/02/23 23:00:16;;;;;;;;;;;;;;;19.21;38.33;93919.22;10529781;28;1602;-59
2024/02/23 23:05:17;;;;;;;;;;;;;;;19.21;38.19;93919.22;10530125;28;1164;-60
2024/02/23 23:10:17;;;;;;;;;;;;;;;19.20;38.40;93930.03;10528875;28;1898;-60
2024/02/23 23:15:17;;;;;;;;;;;;;;;19.15;38.82;93935.44;10530005;28;1762;-59
2024/02/23 23:20:19;;;;;;;;;;;;;;;19.13;38.33;93933.13;10529337;28;2441;-59
2024/02/23 23:25:19;;;;;;;;;;;;;;;19.11;38.70;93940.53;10525926;28;1621;-59
2024/02/23 23:30:22;;;;;;;;;;;;;;;19.10;38.60;93943.47;10525908;28;1898;-60
2024/02/23 23:35:22;;;;;;;;;;;;;;;19.10;38.14;93946.84;10545179;28;1751;-59
2024/02/23 23:40:22;;;;;;;;;;;;;;;19.07;38.21;93954.59;10542361;28;1023;-59
2024/02/23 23:45:23;;;;;;;;;;;;;;;19.03;38.73;93949.19;10547779;28;1416;-59
2024/02/23 23:50:25;;;;;;;;;;;;;;;18.99;38.02;93958.75;10546058;28;1894;-59
2024/02/23 23:55:26;;;;;;;;;;;;;;;18.97;38.13;93955.66;10545582;28;1457;-60
